sensor_id;sensor_type;location;lat;lon;timestamp;P1;durP1;ratioP1;P2;durP2;ratioP2
23866;SDS011;12114;53.404;-1.502;2023-02-15T00:00:53;52.20;;;27.58;;
23866;SDS011;12114;53.404;-1.502;2023-02-15T00:03:20;51.65;;;27.02;;
23866;SDS011;12114;53.404;-1.502;2023-02-15T00:05:45;52.97;;;27.48;;
23866;SDS011;12114;53.404;-1.502;2023-02-15T00:08:10;53.40;;;28.75;;
23866;SDS011;12114;53.404;-1.502;2023-02-15T00:10:36;55.00;;;27.73;;
23866;SDS011;12114;53.404;-1.502;2023-02-15T00:13:01;54.22;;;29.75;;
23866;SDS011;12114;53.404;-1.502;2023-02-15T00:15:26;51.42;;;28.95;;
23866;SDS011;12114;53.404;-1.502;2023-02-15T00:17:52;48.75;;;27.02;;
23866;SDS011;12114;53.404;-1.502;2023-02-15T00:20:17;49.70;;;26.83;;
23866;SDS011;12114;53.404;-1.502;2023-02-15T00:22:44;48.72;;;27.27;;
23866;SDS011;12114;53.404;-1.502;2023-02-15T00:25:09;52.13;;;28.50;;
23866;SDS011;12114;53.404;-1.502;2023-02-15T00:27:34;49.67;;;28.75;;
23866;SDS011;12114;53.404;-1.502;2023-02-15T00:30:00;50.63;;;27.63;;
23866;SDS011;12114;53.404;-1.502;2023-02-15T00:32:25;51.08;;;27.42;;
23866;SDS011;12114;53.404;-1.502;2023-02-15T00:34:52;46.67;;;27.05;;
23866;SDS011;12114;53.404;-1.502;2023-02-15T00:37:18;50.10;;;27.88;;
23866;SDS011;12114;53.404;-1.502;2023-02-15T00:39:43;48.92;;;27.73;;
23866;SDS011;12114;53.404;-1.502;2023-02-15T00:42:08;50.42;;;28.52;;
23866;SDS011;12114;53.404;-1.502;2023-02-15T00:44:33;56.47;;;28.95;;
23866;SDS011;12114;53.404;-1.502;2023-02-15T00:46:59;51.53;;;28.08;;
23866;SDS011;12114;53.404;-1.502;2023-02-15T00:49:24;49.92;;;27.83;;
23866;SDS011;12114;53.404;-1.502;2023-02-15T00:51:49;50.67;;;29.55;;
23866;SDS011;12114;53.404;-1.502;2023-02-15T00:54:15;57.42;;;31.30;;
23866;SDS011;12114;53.404;-1.502;2023-02-15T00:56:40;57.92;;;31.17;;
23866;SDS011;12114;53.404;-1.502;2023-02-15T00:59:05;54.42;;;29.52;;
23866;SDS011;12114;53.404;-1.502;2023-02-15T01:01:31;61.20;;;32.30;;
23866;SDS011;12114;53.404;-1.502;2023-02-15T01:03:56;56.20;;;30.88;;
23866;SDS011;12114;53.404;-1.502;2023-02-15T01:06:22;53.25;;;29.83;;
23866;SDS011;12114;53.404;-1.502;2023-02-15T01:08:47;58.53;;;31.95;;
23866;SDS011;12114;53.404;-1.502;2023-02-15T01:11:17;52.88;;;29.80;;
23866;SDS011;12114;53.404;-1.502;2023-02-15T01:13:52;55.22;;;30.77;;
23866;SDS011;12114;53.404;-1.502;2023-02-15T01:16:18;57.47;;;30.73;;
23866;SDS011;12114;53.404;-1.502;2023-02-15T01:18:44;58.50;;;34.22;;
23866;SDS011;12114;53.404;-1.502;2023-02-15T01:21:14;63.00;;;33.53;;
23866;SDS011;12114;53.404;-1.502;2023-02-15T01:23:40;64.00;;;33.35;;
23866;SDS011;12114;53.404;-1.502;2023-02-15T01:26:06;68.10;;;32.38;;
23866;SDS011;12114;53.404;-1.502;2023-02-15T01:28:31;58.40;;;32.97;;
23866;SDS011;12114;53.404;-1.502;2023-02-15T01:30:57;60.58;;;33.80;;
23866;SDS011;12114;53.404;-1.502;2023-02-15T01:33:24;55.60;;;33.17;;
23866;SDS011;12114;53.404;-1.502;2023-02-15T01:35:55;53.92;;;32.42;;
23866;SDS011;12114;53.404;-1.502;2023-02-15T01:38:20;56.83;;;32.60;;
23866;SDS011;12114;53.404;-1.502;2023-02-15T01:40:46;58.95;;;33.08;;
23866;SDS011;12114;53.404;-1.502;2023-02-15T01:43:11;61.38;;;32.92;;
23866;SDS011;12114;53.404;-1.502;2023-02-15T01:45:38;64.07;;;35.67;;
23866;SDS011;12114;53.404;-1.502;2023-02-15T01:48:05;56.80;;;34.35;;
23866;SDS011;12114;53.404;-1.502;2023-02-15T01:50:34;61.10;;;34.38;;
23866;SDS011;12114;53.404;-1.502;2023-02-15T01:55:39;62.80;;;35.63;;
23866;SDS011;12114;53.404;-1.502;2023-02-15T01:58:05;61.58;;;35.70;;
23866;SDS011;12114;53.404;-1.502;2023-02-15T02:00:31;61.22;;;35.53;;
23866;SDS011;12114;53.404;-1.502;2023-02-15T02:02:56;62.30;;;35.92;;
23866;SDS011;12114;53.404;-1.502;2023-02-15T02:05:22;62.45;;;37.03;;
23866;SDS011;12114;53.404;-1.502;2023-02-15T02:07:48;60.28;;;36.17;;
23866;SDS011;12114;53.404;-1.502;2023-02-15T02:10:16;61.60;;;35.30;;
23866;SDS011;12114;53.404;-1.502;2023-02-15T02:12:41;63.25;;;36.38;;
23866;SDS011;12114;53.404;-1.502;2023-02-15T02:15:08;64.63;;;36.83;;
23866;SDS011;12114;53.404;-1.502;2023-02-15T02:30:48;68.60;;;36.70;;
23866;SDS011;12114;53.404;-1.502;2023-02-15T02:43:25;69.15;;;37.90;;
23866;SDS011;12114;53.404;-1.502;2023-02-15T02:46:05;67.72;;;36.67;;
23866;SDS011;12114;53.404;-1.502;2023-02-15T02:48:32;70.28;;;39.47;;
23866;SDS011;12114;53.404;-1.502;2023-02-15T02:50:58;69.68;;;38.47;;
23866;SDS011;12114;53.404;-1.502;2023-02-15T02:53:23;68.80;;;37.45;;
23866;SDS011;12114;53.404;-1.502;2023-02-15T02:58:15;72.97;;;39.58;;
23866;SDS011;12114;53.404;-1.502;2023-02-15T03:03:15;72.35;;;39.17;;
23866;SDS011;12114;53.404;-1.502;2023-02-15T03:05:44;72.40;;;41.42;;
23866;SDS011;12114;53.404;-1.502;2023-02-15T03:08:10;69.13;;;39.03;;
23866;SDS011;12114;53.404;-1.502;2023-02-15T03:10:36;66.53;;;36.55;;
23866;SDS011;12114;53.404;-1.502;2023-02-15T03:13:02;72.55;;;38.13;;
23866;SDS011;12114;53.404;-1.502;2023-02-15T03:15:29;78.82;;;39.67;;
23866;SDS011;12114;53.404;-1.502;2023-02-15T03:18:16;68.30;;;38.35;;
23866;SDS011;12114;53.404;-1.502;2023-02-15T03:20:42;69.68;;;38.80;;
23866;SDS011;12114;53.404;-1.502;2023-02-15T03:23:11;73.75;;;38.95;;
23866;SDS011;12114;53.404;-1.502;2023-02-15T03:25:46;70.82;;;37.08;;
23866;SDS011;12114;53.404;-1.502;2023-02-15T03:30:39;77.47;;;40.07;;
23866;SDS011;12114;53.404;-1.502;2023-02-15T03:33:05;67.65;;;38.38;;
23866;SDS011;12114;53.404;-1.502;2023-02-15T03:35:33;70.60;;;39.67;;
23866;SDS011;12114;53.404;-1.502;2023-02-15T03:38:01;76.25;;;41.13;;
23866;SDS011;12114;53.404;-1.502;2023-02-15T03:40:34;76.80;;;40.65;;
23866;SDS011;12114;53.404;-1.502;2023-02-15T03:46:32;76.07;;;38.70;;
23866;SDS011;12114;53.404;-1.502;2023-02-15T03:49:09;66.72;;;38.65;;
23866;SDS011;12114;53.404;-1.502;2023-02-15T03:51:35;77.78;;;38.80;;
23866;SDS011;12114;53.404;-1.502;2023-02-15T03:56:38;69.32;;;38.22;;
23866;SDS011;12114;53.404;-1.502;2023-02-15T03:59:04;67.95;;;38.45;;
23866;SDS011;12114;53.404;-1.502;2023-02-15T04:04:39;70.47;;;37.33;;
23866;SDS011;12114;53.404;-1.502;2023-02-15T04:07:07;79.85;;;38.30;;
23866;SDS011;12114;53.404;-1.502;2023-02-15T04:09:33;77.03;;;38.47;;
23866;SDS011;12114;53.404;-1.502;2023-02-15T04:12:17;75.30;;;39.45;;
23866;SDS011;12114;53.404;-1.502;2023-02-15T04:14:42;67.25;;;37.63;;
23866;SDS011;12114;53.404;-1.502;2023-02-15T04:17:26;70.97;;;37.72;;
23866;SDS011;12114;53.404;-1.502;2023-02-15T04:19:51;67.75;;;37.58;;
23866;SDS011;12114;53.404;-1.502;2023-02-15T04:22:35;68.15;;;36.15;;
23866;SDS011;12114;53.404;-1.502;2023-02-15T04:25:19;68.68;;;37.55;;
23866;SDS011;12114;53.404;-1.502;2023-02-15T04:27:47;71.18;;;37.65;;
23866;SDS011;12114;53.404;-1.502;2023-02-15T04:30:13;64.32;;;37.40;;
23866;SDS011;12114;53.404;-1.502;2023-02-15T04:32:39;69.13;;;37.20;;
23866;SDS011;12114;53.404;-1.502;2023-02-15T04:35:05;63.65;;;34.88;;
23866;SDS011;12114;53.404;-1.502;2023-02-15T04:37:30;65.43;;;34.75;;
23866;SDS011;12114;53.404;-1.502;2023-02-15T04:39:56;65.85;;;35.30;;
23866;SDS011;12114;53.404;-1.502;2023-02-15T04:42:23;66.32;;;35.28;;
23866;SDS011;12114;53.404;-1.502;2023-02-15T04:44:48;72.40;;;37.22;;
23866;SDS011;12114;53.404;-1.502;2023-02-15T04:47:14;65.95;;;36.28;;
23866;SDS011;12114;53.404;-1.502;2023-02-15T04:49:39;79.03;;;38.53;;
23866;SDS011;12114;53.404;-1.502;2023-02-15T04:52:04;74.55;;;37.08;;
23866;SDS011;12114;53.404;-1.502;2023-02-15T04:54:29;68.53;;;36.67;;
23866;SDS011;12114;53.404;-1.502;2023-02-15T04:56:55;69.30;;;37.63;;
23866;SDS011;12114;53.404;-1.502;2023-02-15T04:59:20;69.40;;;37.67;;
23866;SDS011;12114;53.404;-1.502;2023-02-15T05:01:45;76.72;;;39.13;;
23866;SDS011;12114;53.404;-1.502;2023-02-15T05:04:11;79.55;;;40.75;;
23866;SDS011;12114;53.404;-1.502;2023-02-15T05:06:36;64.63;;;36.58;;
23866;SDS011;12114;53.404;-1.502;2023-02-15T05:09:01;75.45;;;40.58;;
23866;SDS011;12114;53.404;-1.502;2023-02-15T05:11:26;74.57;;;39.15;;
23866;SDS011;12114;53.404;-1.502;2023-02-15T05:13:52;69.22;;;39.30;;
23866;SDS011;12114;53.404;-1.502;2023-02-15T05:16:18;82.30;;;41.35;;
23866;SDS011;12114;53.404;-1.502;2023-02-15T05:18:43;84.55;;;43.53;;
23866;SDS011;12114;53.404;-1.502;2023-02-15T05:21:08;78.53;;;42.95;;
23866;SDS011;12114;53.404;-1.502;2023-02-15T05:23:33;70.63;;;40.38;;
23866;SDS011;12114;53.404;-1.502;2023-02-15T05:25:59;74.47;;;41.00;;
23866;SDS011;12114;53.404;-1.502;2023-02-15T05:28:43;75.47;;;41.33;;
23866;SDS011;12114;53.404;-1.502;2023-02-15T05:31:12;77.15;;;40.15;;
23866;SDS011;12114;53.404;-1.502;2023-02-15T05:33:38;73.68;;;39.53;;
23866;SDS011;12114;53.404;-1.502;2023-02-15T05:36:04;71.70;;;39.15;;
23866;SDS011;12114;53.404;-1.502;2023-02-15T05:38:29;66.60;;;37.42;;
23866;SDS011;12114;53.404;-1.502;2023-02-15T05:40:55;66.75;;;36.50;;
23866;SDS011;12114;53.404;-1.502;2023-02-15T05:43:20;68.03;;;37.88;;
23866;SDS011;12114;53.404;-1.502;2023-02-15T05:45:49;71.45;;;39.78;;
23866;SDS011;12114;53.404;-1.502;2023-02-15T05:48:15;71.57;;;38.63;;
23866;SDS011;12114;53.404;-1.502;2023-02-15T05:50:40;74.93;;;40.13;;
23866;SDS011;12114;53.404;-1.502;2023-02-15T05:53:06;72.35;;;38.15;;
23866;SDS011;12114;53.404;-1.502;2023-02-15T05:55:31;72.05;;;38.90;;
23866;SDS011;12114;53.404;-1.502;2023-02-15T05:57:56;72.72;;;41.03;;
23866;SDS011;12114;53.404;-1.502;2023-02-15T06:00:22;76.93;;;43.03;;
23866;SDS011;12114;53.404;-1.502;2023-02-15T06:02:47;77.40;;;41.63;;
23866;SDS011;12114;53.404;-1.502;2023-02-15T06:05:13;77.35;;;42.85;;
23866;SDS011;12114;53.404;-1.502;2023-02-15T06:07:38;80.65;;;42.47;;
23866;SDS011;12114;53.404;-1.502;2023-02-15T06:10:03;86.45;;;44.33;;
23866;SDS011;12114;53.404;-1.502;2023-02-15T06:12:29;79.45;;;42.33;;
23866;SDS011;12114;53.404;-1.502;2023-02-15T06:14:54;82.25;;;43.42;;
23866;SDS011;12114;53.404;-1.502;2023-02-15T06:17:19;76.55;;;42.58;;
23866;SDS011;12114;53.404;-1.502;2023-02-15T06:19:46;74.55;;;40.72;;
23866;SDS011;12114;53.404;-1.502;2023-02-15T06:22:12;71.45;;;41.15;;
23866;SDS011;12114;53.404;-1.502;2023-02-15T06:24:39;79.50;;;41.38;;
23866;SDS011;12114;53.404;-1.502;2023-02-15T06:27:04;76.47;;;41.35;;
23866;SDS011;12114;53.404;-1.502;2023-02-15T06:29:29;74.43;;;43.33;;
23866;SDS011;12114;53.404;-1.502;2023-02-15T06:31:54;84.45;;;41.83;;
23866;SDS011;12114;53.404;-1.502;2023-02-15T06:34:20;70.50;;;39.78;;
23866;SDS011;12114;53.404;-1.502;2023-02-15T06:36:45;71.32;;;39.28;;
23866;SDS011;12114;53.404;-1.502;2023-02-15T06:39:10;68.78;;;38.92;;
23866;SDS011;12114;53.404;-1.502;2023-02-15T06:41:35;73.13;;;40.45;;
23866;SDS011;12114;53.404;-1.502;2023-02-15T06:44:01;77.28;;;40.90;;
23866;SDS011;12114;53.404;-1.502;2023-02-15T06:46:26;74.47;;;40.75;;
23866;SDS011;12114;53.404;-1.502;2023-02-15T06:48:51;77.75;;;41.78;;
23866;SDS011;12114;53.404;-1.502;2023-02-15T06:51:17;76.07;;;40.70;;
23866;SDS011;12114;53.404;-1.502;2023-02-15T06:53:42;91.55;;;46.08;;
23866;SDS011;12114;53.404;-1.502;2023-02-15T06:56:08;74.88;;;43.38;;
23866;SDS011;12114;53.404;-1.502;2023-02-15T06:58:37;83.88;;;47.08;;
23866;SDS011;12114;53.404;-1.502;2023-02-15T07:01:03;85.47;;;45.80;;
23866;SDS011;12114;53.404;-1.502;2023-02-15T07:03:29;103.13;;;55.40;;
23866;SDS011;12114;53.404;-1.502;2023-02-15T07:05:58;99.20;;;53.40;;
23866;SDS011;12114;53.404;-1.502;2023-02-15T07:08:24;87.78;;;49.40;;
23866;SDS011;12114;53.404;-1.502;2023-02-15T07:10:50;78.00;;;44.97;;
23866;SDS011;12114;53.404;-1.502;2023-02-15T07:13:15;90.93;;;46.60;;
23866;SDS011;12114;53.404;-1.502;2023-02-15T07:15:41;82.35;;;43.47;;
23866;SDS011;12114;53.404;-1.502;2023-02-15T07:18:06;95.05;;;45.00;;
23866;SDS011;12114;53.404;-1.502;2023-02-15T07:20:31;77.05;;;43.55;;
23866;SDS011;12114;53.404;-1.502;2023-02-15T07:22:59;84.57;;;45.35;;
23866;SDS011;12114;53.404;-1.502;2023-02-15T07:25:24;78.13;;;42.53;;
23866;SDS011;12114;53.404;-1.502;2023-02-15T07:27:55;79.55;;;41.80;;
23866;SDS011;12114;53.404;-1.502;2023-02-15T07:30:21;81.55;;;42.15;;
23866;SDS011;12114;53.404;-1.502;2023-02-15T07:32:46;88.20;;;43.63;;
23866;SDS011;12114;53.404;-1.502;2023-02-15T07:35:30;75.72;;;41.50;;
23866;SDS011;12114;53.404;-1.502;2023-02-15T07:37:55;79.15;;;44.47;;
23866;SDS011;12114;53.404;-1.502;2023-02-15T07:40:20;86.18;;;46.78;;
23866;SDS011;12114;53.404;-1.502;2023-02-15T07:42:48;90.50;;;46.40;;
23866;SDS011;12114;53.404;-1.502;2023-02-15T07:45:13;84.25;;;46.00;;
23866;SDS011;12114;53.404;-1.502;2023-02-15T07:47:38;89.45;;;48.33;;
23866;SDS011;12114;53.404;-1.502;2023-02-15T07:50:04;89.88;;;47.13;;
23866;SDS011;12114;53.404;-1.502;2023-02-15T07:52:29;92.38;;;48.47;;
23866;SDS011;12114;53.404;-1.502;2023-02-15T07:54:55;91.28;;;47.15;;
23866;SDS011;12114;53.404;-1.502;2023-02-15T07:57:20;92.85;;;49.03;;
23866;SDS011;12114;53.404;-1.502;2023-02-15T07:59:45;94.07;;;50.38;;
23866;SDS011;12114;53.404;-1.502;2023-02-15T08:02:10;95.18;;;50.00;;
23866;SDS011;12114;53.404;-1.502;2023-02-15T08:04:36;96.68;;;50.83;;
23866;SDS011;12114;53.404;-1.502;2023-02-15T08:07:01;95.18;;;49.03;;
23866;SDS011;12114;53.404;-1.502;2023-02-15T08:09:27;88.00;;;48.40;;
23866;SDS011;12114;53.404;-1.502;2023-02-15T08:11:52;96.43;;;49.42;;
23866;SDS011;12114;53.404;-1.502;2023-02-15T08:14:18;100.60;;;50.40;;
23866;SDS011;12114;53.404;-1.502;2023-02-15T08:16:53;100.57;;;51.75;;
23866;SDS011;12114;53.404;-1.502;2023-02-15T08:19:23;104.25;;;52.85;;
23866;SDS011;12114;53.404;-1.502;2023-02-15T08:21:49;97.93;;;52.15;;
23866;SDS011;12114;53.404;-1.502;2023-02-15T08:24:16;103.93;;;52.78;;
23866;SDS011;12114;53.404;-1.502;2023-02-15T08:26:41;101.85;;;52.50;;
23866;SDS011;12114;53.404;-1.502;2023-02-15T08:29:07;94.50;;;49.85;;
23866;SDS011;12114;53.404;-1.502;2023-02-15T08:31:33;101.10;;;50.75;;
23866;SDS011;12114;53.404;-1.502;2023-02-15T08:33:59;107.20;;;54.85;;
23866;SDS011;12114;53.404;-1.502;2023-02-15T08:36:26;96.75;;;52.38;;
23866;SDS011;12114;53.404;-1.502;2023-02-15T08:38:52;98.80;;;52.20;;
23866;SDS011;12114;53.404;-1.502;2023-02-15T08:41:24;94.15;;;50.38;;
23866;SDS011;12114;53.404;-1.502;2023-02-15T08:43:51;88.85;;;49.63;;
23866;SDS011;12114;53.404;-1.502;2023-02-15T08:46:17;97.82;;;54.38;;
23866;SDS011;12114;53.404;-1.502;2023-02-15T08:48:43;99.05;;;52.08;;
23866;SDS011;12114;53.404;-1.502;2023-02-15T08:51:18;97.70;;;51.85;;
23866;SDS011;12114;53.404;-1.502;2023-02-15T08:53:45;103.38;;;59.67;;
23866;SDS011;12114;53.404;-1.502;2023-02-15T08:56:11;102.07;;;57.50;;
23866;SDS011;12114;53.404;-1.502;2023-02-15T08:58:37;91.90;;;53.90;;
23866;SDS011;12114;53.404;-1.502;2023-02-15T09:01:07;89.40;;;52.50;;
23866;SDS011;12114;53.404;-1.502;2023-02-15T09:03:33;85.90;;;46.10;;
23866;SDS011;12114;53.404;-1.502;2023-02-15T09:05:59;89.72;;;49.85;;
23866;SDS011;12114;53.404;-1.502;2023-02-15T09:08:25;80.80;;;45.53;;
23866;SDS011;12114;53.404;-1.502;2023-02-15T09:10:50;71.05;;;42.03;;
23866;SDS011;12114;53.404;-1.502;2023-02-15T09:13:15;67.03;;;39.60;;
23866;SDS011;12114;53.404;-1.502;2023-02-15T09:15:40;71.60;;;40.90;;
23866;SDS011;12114;53.404;-1.502;2023-02-15T09:18:06;71.93;;;41.10;;
23866;SDS011;12114;53.404;-1.502;2023-02-15T09:20:35;90.57;;;49.08;;
23866;SDS011;12114;53.404;-1.502;2023-02-15T09:23:00;70.80;;;42.08;;
23866;SDS011;12114;53.404;-1.502;2023-02-15T09:25:26;65.05;;;38.47;;
23866;SDS011;12114;53.404;-1.502;2023-02-15T09:27:51;61.00;;;36.22;;
23866;SDS011;12114;53.404;-1.502;2023-02-15T09:30:16;61.20;;;34.95;;
23866;SDS011;12114;53.404;-1.502;2023-02-15T09:32:42;65.03;;;34.10;;
23866;SDS011;12114;53.404;-1.502;2023-02-15T09:35:07;62.25;;;34.33;;
23866;SDS011;12114;53.404;-1.502;2023-02-15T09:37:32;58.38;;;33.92;;
23866;SDS011;12114;53.404;-1.502;2023-02-15T09:39:57;65.60;;;34.08;;
23866;SDS011;12114;53.404;-1.502;2023-02-15T09:50:16;66.65;;;32.15;;
23866;SDS011;12114;53.404;-1.502;2023-02-15T09:58:08;59.22;;;31.15;;
23866;SDS011;12114;53.404;-1.502;2023-02-15T10:03:23;55.35;;;28.65;;
23866;SDS011;12114;53.404;-1.502;2023-02-15T10:06:38;68.35;;;31.35;;
23866;SDS011;12114;53.404;-1.502;2023-02-15T10:17:37;46.45;;;27.10;;
23866;SDS011;12114;53.404;-1.502;2023-02-15T10:19:37;48.50;;;25.40;;
23866;SDS011;12114;53.404;-1.502;2023-02-15T10:24:49;45.70;;;25.02;;
23866;SDS011;12114;53.404;-1.502;2023-02-15T10:27:20;42.65;;;24.27;;
23866;SDS011;12114;53.404;-1.502;2023-02-15T10:32:25;44.05;;;24.02;;
23866;SDS011;12114;53.404;-1.502;2023-02-15T10:37:56;37.90;;;22.20;;
23866;SDS011;12114;53.404;-1.502;2023-02-15T10:43:08;39.55;;;22.58;;
23866;SDS011;12114;53.404;-1.502;2023-02-15T10:48:22;38.88;;;22.38;;
23866;SDS011;12114;53.404;-1.502;2023-02-15T10:50:51;34.38;;;22.13;;
23866;SDS011;12114;53.404;-1.502;2023-02-15T10:53:26;38.80;;;23.08;;
23866;SDS011;12114;53.404;-1.502;2023-02-15T10:56:06;37.38;;;22.33;;
23866;SDS011;12114;53.404;-1.502;2023-02-15T11:06:12;36.42;;;22.67;;
23866;SDS011;12114;53.404;-1.502;2023-02-15T11:08:43;37.90;;;24.25;;
23866;SDS011;12114;53.404;-1.502;2023-02-15T11:11:20;39.38;;;24.13;;
23866;SDS011;12114;53.404;-1.502;2023-02-15T11:13:47;40.80;;;24.42;;
23866;SDS011;12114;53.404;-1.502;2023-02-15T11:16:15;40.63;;;25.05;;
23866;SDS011;12114;53.404;-1.502;2023-02-15T11:18:43;40.08;;;23.83;;
23866;SDS011;12114;53.404;-1.502;2023-02-15T11:21:12;42.35;;;24.02;;
23866;SDS011;12114;53.404;-1.502;2023-02-15T11:23:40;37.15;;;23.15;;
23866;SDS011;12114;53.404;-1.502;2023-02-15T11:26:11;37.08;;;22.27;;
23866;SDS011;12114;53.404;-1.502;2023-02-15T11:28:39;39.08;;;23.52;;
23866;SDS011;12114;53.404;-1.502;2023-02-15T11:33:58;35.78;;;22.50;;
23866;SDS011;12114;53.404;-1.502;2023-02-15T11:36:25;39.40;;;25.25;;
23866;SDS011;12114;53.404;-1.502;2023-02-15T11:38:59;31.48;;;21.33;;
23866;SDS011;12114;53.404;-1.502;2023-02-15T11:41:28;34.22;;;22.38;;
23866;SDS011;12114;53.404;-1.502;2023-02-15T11:44:04;44.00;;;22.83;;
23866;SDS011;12114;53.404;-1.502;2023-02-15T11:46:31;34.45;;;20.42;;
23866;SDS011;12114;53.404;-1.502;2023-02-15T11:48:56;34.88;;;21.52;;
23866;SDS011;12114;53.404;-1.502;2023-02-15T11:51:23;31.90;;;19.02;;
23866;SDS011;12114;53.404;-1.502;2023-02-15T11:53:49;29.95;;;18.80;;
23866;SDS011;12114;53.404;-1.502;2023-02-15T11:56:16;28.52;;;19.20;;
23866;SDS011;12114;53.404;-1.502;2023-02-15T11:58:52;30.98;;;18.75;;
23866;SDS011;12114;53.404;-1.502;2023-02-15T12:03:57;30.38;;;19.08;;
23866;SDS011;12114;53.404;-1.502;2023-02-15T12:06:32;34.67;;;19.38;;
23866;SDS011;12114;53.404;-1.502;2023-02-15T12:09:17;32.38;;;17.67;;
23866;SDS011;12114;53.404;-1.502;2023-02-15T12:11:44;31.63;;;19.02;;
23866;SDS011;12114;53.404;-1.502;2023-02-15T12:14:10;34.10;;;18.23;;
23866;SDS011;12114;53.404;-1.502;2023-02-15T12:16:40;32.30;;;18.38;;
23866;SDS011;12114;53.404;-1.502;2023-02-15T12:19:51;27.40;;;17.42;;
23866;SDS011;12114;53.404;-1.502;2023-02-15T12:22:01;30.83;;;19.27;;
23866;SDS011;12114;53.404;-1.502;2023-02-15T12:24:28;33.67;;;18.25;;
23866;SDS011;12114;53.404;-1.502;2023-02-15T12:29:23;33.28;;;19.45;;
23866;SDS011;12114;53.404;-1.502;2023-02-15T12:31:50;30.40;;;18.20;;
23866;SDS011;12114;53.404;-1.502;2023-02-15T12:36:49;32.95;;;17.70;;
23866;SDS011;12114;53.404;-1.502;2023-02-15T12:39:29;30.27;;;16.27;;
23866;SDS011;12114;53.404;-1.502;2023-02-15T12:44:24;25.85;;;14.50;;
23866;SDS011;12114;53.404;-1.502;2023-02-15T12:47:03;25.80;;;14.52;;
23866;SDS011;12114;53.404;-1.502;2023-02-15T12:49:35;32.40;;;15.98;;
23866;SDS011;12114;53.404;-1.502;2023-02-15T12:52:03;28.55;;;15.32;;
23866;SDS011;12114;53.404;-1.502;2023-02-15T12:54:30;29.20;;;15.40;;
23866;SDS011;12114;53.404;-1.502;2023-02-15T12:56:57;30.20;;;16.25;;
23866;SDS011;12114;53.404;-1.502;2023-02-15T12:59:22;28.85;;;15.95;;
23866;SDS011;12114;53.404;-1.502;2023-02-15T13:01:48;31.55;;;16.60;;
23866;SDS011;12114;53.404;-1.502;2023-02-15T13:04:26;28.17;;;15.57;;
23866;SDS011;12114;53.404;-1.502;2023-02-15T13:06:53;28.13;;;16.80;;
23866;SDS011;12114;53.404;-1.502;2023-02-15T13:09:25;31.65;;;17.65;;
23866;SDS011;12114;53.404;-1.502;2023-02-15T13:11:52;30.45;;;17.13;;
23866;SDS011;12114;53.404;-1.502;2023-02-15T13:16:50;39.42;;;18.08;;
23866;SDS011;12114;53.404;-1.502;2023-02-15T13:21:49;27.20;;;17.00;;
23866;SDS011;12114;53.404;-1.502;2023-02-15T13:24:20;33.10;;;18.17;;
23866;SDS011;12114;53.404;-1.502;2023-02-15T13:26:47;30.83;;;18.02;;
23866;SDS011;12114;53.404;-1.502;2023-02-15T13:29:17;28.35;;;17.52;;
23866;SDS011;12114;53.404;-1.502;2023-02-15T13:31:43;30.38;;;18.63;;
23866;SDS011;12114;53.404;-1.502;2023-02-15T13:34:14;32.22;;;18.25;;
23866;SDS011;12114;53.404;-1.502;2023-02-15T13:59:47;27.30;;;15.20;;
23866;SDS011;12114;53.404;-1.502;2023-02-15T14:02:26;27.60;;;15.90;;
23866;SDS011;12114;53.404;-1.502;2023-02-15T14:20:17;23.33;;;13.32;;
23866;SDS011;12114;53.404;-1.502;2023-02-15T14:22:46;22.10;;;12.80;;
23866;SDS011;12114;53.404;-1.502;2023-02-15T14:25:20;22.08;;;14.23;;
23866;SDS011;12114;53.404;-1.502;2023-02-15T14:30:20;22.80;;;14.02;;
23866;SDS011;12114;53.404;-1.502;2023-02-15T14:32:46;21.73;;;13.73;;
23866;SDS011;12114;53.404;-1.502;2023-02-15T14:35:14;22.33;;;13.20;;
23866;SDS011;12114;53.404;-1.502;2023-02-15T14:37:46;21.67;;;13.63;;
23866;SDS011;12114;53.404;-1.502;2023-02-15T14:43:07;26.83;;;15.05;;
23866;SDS011;12114;53.404;-1.502;2023-02-15T14:48:03;25.95;;;15.32;;
23866;SDS011;12114;53.404;-1.502;2023-02-15T14:55:39;24.27;;;15.73;;
23866;SDS011;12114;53.404;-1.502;2023-02-15T14:58:09;26.20;;;15.70;;
23866;SDS011;12114;53.404;-1.502;2023-02-15T15:00:39;29.42;;;15.63;;
23866;SDS011;12114;53.404;-1.502;2023-02-15T15:03:19;24.27;;;14.43;;
23866;SDS011;12114;53.404;-1.502;2023-02-15T15:05:51;23.98;;;14.95;;
23866;SDS011;12114;53.404;-1.502;2023-02-15T15:08:22;25.60;;;14.30;;
23866;SDS011;12114;53.404;-1.502;2023-02-15T15:10:50;21.48;;;14.75;;
23866;SDS011;12114;53.404;-1.502;2023-02-15T15:15:56;21.00;;;13.45;;
23866;SDS011;12114;53.404;-1.502;2023-02-15T15:21:06;24.48;;;14.65;;
23866;SDS011;12114;53.404;-1.502;2023-02-15T15:23:39;26.55;;;15.63;;
23866;SDS011;12114;53.404;-1.502;2023-02-15T15:26:21;24.08;;;14.35;;
23866;SDS011;12114;53.404;-1.502;2023-02-15T15:31:30;24.25;;;14.27;;
23866;SDS011;12114;53.404;-1.502;2023-02-15T15:37:12;25.88;;;15.50;;
23866;SDS011;12114;53.404;-1.502;2023-02-15T15:50:11;24.98;;;14.93;;
23866;SDS011;12114;53.404;-1.502;2023-02-15T15:52:36;24.02;;;15.65;;
23866;SDS011;12114;53.404;-1.502;2023-02-15T15:55:05;28.52;;;17.20;;
23866;SDS011;12114;53.404;-1.502;2023-02-15T15:57:38;25.00;;;16.60;;
23866;SDS011;12114;53.404;-1.502;2023-02-15T16:00:04;28.35;;;17.20;;
23866;SDS011;12114;53.404;-1.502;2023-02-15T16:02:51;29.20;;;16.55;;
23866;SDS011;12114;53.404;-1.502;2023-02-15T16:05:16;25.20;;;15.98;;
23866;SDS011;12114;53.404;-1.502;2023-02-15T16:07:42;28.50;;;17.38;;
23866;SDS011;12114;53.404;-1.502;2023-02-15T16:10:16;25.48;;;15.98;;
23866;SDS011;12114;53.404;-1.502;2023-02-15T16:12:45;28.15;;;17.27;;
23866;SDS011;12114;53.404;-1.502;2023-02-15T16:15:54;25.55;;;15.90;;
23866;SDS011;12114;53.404;-1.502;2023-02-15T16:18:00;24.40;;;15.00;;
23866;SDS011;12114;53.404;-1.502;2023-02-15T16:26:07;27.95;;;16.33;;
23866;SDS011;12114;53.404;-1.502;2023-02-15T16:28:36;27.15;;;15.40;;
23866;SDS011;12114;53.404;-1.502;2023-02-15T16:31:14;20.13;;;14.15;;
23866;SDS011;12114;53.404;-1.502;2023-02-15T16:33:40;21.98;;;14.38;;
23866;SDS011;12114;53.404;-1.502;2023-02-15T16:36:06;19.92;;;13.95;;
23866;SDS011;12114;53.404;-1.502;2023-02-15T16:41:16;20.15;;;14.18;;
23866;SDS011;12114;53.404;-1.502;2023-02-15T16:43:43;18.33;;;13.65;;
23866;SDS011;12114;53.404;-1.502;2023-02-15T16:46:10;18.13;;;14.07;;
23866;SDS011;12114;53.404;-1.502;2023-02-15T16:48:41;18.52;;;13.40;;
23866;SDS011;12114;53.404;-1.502;2023-02-15T16:51:07;22.00;;;14.25;;
23866;SDS011;12114;53.404;-1.502;2023-02-15T16:53:34;22.52;;;13.70;;
23866;SDS011;12114;53.404;-1.502;2023-02-15T16:56:00;20.13;;;14.48;;
23866;SDS011;12114;53.404;-1.502;2023-02-15T16:58:27;19.23;;;13.63;;
23866;SDS011;12114;53.404;-1.502;2023-02-15T17:01:00;23.05;;;13.40;;
23866;SDS011;12114;53.404;-1.502;2023-02-15T17:03:26;16.98;;;12.32;;
23866;SDS011;12114;53.404;-1.502;2023-02-15T17:05:56;20.00;;;13.48;;
23866;SDS011;12114;53.404;-1.502;2023-02-15T17:13:37;21.75;;;15.93;;
23866;SDS011;12114;53.404;-1.502;2023-02-15T17:18:44;27.88;;;17.05;;
23866;SDS011;12114;53.404;-1.502;2023-02-15T17:21:10;27.50;;;16.95;;
23866;SDS011;12114;53.404;-1.502;2023-02-15T17:23:41;25.45;;;16.40;;
23866;SDS011;12114;53.404;-1.502;2023-02-15T17:26:20;25.70;;;16.73;;
23866;SDS011;12114;53.404;-1.502;2023-02-15T17:28:47;28.67;;;18.52;;